createdAt,value
2023-02-03T00:00:56.125Z,8.70
2023-02-03T00:06:02.618Z,16.43
2023-02-03T00:11:07.070Z,21.07
2023-02-03T00:16:11.725Z,16.52
2023-02-03T00:21:15.842Z,9.57
2023-02-03T00:26:20.067Z,12.73
2023-02-03T00:31:25.928Z,26.67
2023-02-03T00:36:29.969Z,19.47
2023-02-03T00:41:33.785Z,8.47
2023-02-03T00:46:37.870Z,14.20
2023-02-03T00:51:41.761Z,20.27
2023-02-03T00:56:45.631Z,16.77
2023-02-03T01:01:51.607Z,11.70
2023-02-03T01:06:58.115Z,8.20
2023-02-03T01:12:02.205Z,10.47
2023-02-03T01:17:06.285Z,4.67
2023-02-03T01:22:10.178Z,10.93
2023-02-03T01:27:14.057Z,5.93
2023-02-03T01:32:19.179Z,14.33
2023-02-03T01:37:23.117Z,9.60
2023-02-03T01:42:27.115Z,7.33
2023-02-03T01:47:34.113Z,9.03
2023-02-03T01:52:40.827Z,13.33
2023-02-03T01:57:53.058Z,12.07
2023-02-03T02:03:03.256Z,3.03
2023-02-03T02:08:10.395Z,7.10
2023-02-03T02:13:15.941Z,4.23
2023-02-03T02:18:59.237Z,7.47
2023-02-03T02:24:19.252Z,5.57
2023-02-03T02:29:41.785Z,13.63
2023-02-03T02:35:00.189Z,12.57
2023-02-03T02:40:38.129Z,14.23
2023-02-03T02:45:52.383Z,6.57
2023-02-03T02:50:58.977Z,6.93
2023-02-03T02:56:07.866Z,8.03
2023-02-03T03:01:12.773Z,8.87
2023-02-03T03:06:42.339Z,12.60
2023-02-03T03:11:52.757Z,14.73
2023-02-03T03:17:03.237Z,12.60
2023-02-03T03:22:12.977Z,14.80
2023-02-03T03:27:20.068Z,13.60
2023-02-03T03:32:24.934Z,14.33
2023-02-03T03:37:43.558Z,13.48
2023-02-03T03:43:25.739Z,21.03
2023-02-03T03:48:40.317Z,25.27
2023-02-03T03:53:46.579Z,24.93
2023-02-03T03:58:53.508Z,5.70
2023-02-03T04:04:03.671Z,14.30
2023-02-03T04:09:07.749Z,14.77
2023-02-03T04:14:12.338Z,27.83
2023-02-03T04:19:16.226Z,25.27
2023-02-03T04:24:20.466Z,20.17
2023-02-03T04:29:24.197Z,30.07
2023-02-03T04:34:28.105Z,13.73
2023-02-03T04:39:31.987Z,22.97
2023-02-03T04:44:35.850Z,22.67
2023-02-03T04:49:39.725Z,23.77
2023-02-03T04:54:43.653Z,24.83
2023-02-03T04:59:47.537Z,27.33
2023-02-03T05:04:51.521Z,39.93
2023-02-03T05:09:55.249Z,30.47
2023-02-03T05:14:59.243Z,25.77
2023-02-03T05:20:03.226Z,33.80
2023-02-03T05:25:08.019Z,26.00
2023-02-03T05:30:12.668Z,27.17
2023-02-03T05:35:16.615Z,28.97
2023-02-03T05:40:39.240Z,26.70
2023-02-03T05:45:43.117Z,25.97
2023-02-03T05:50:47.181Z,30.33
2023-02-03T05:55:51.140Z,38.40
2023-02-03T06:00:54.930Z,53.37
2023-02-03T06:05:59.761Z,56.57
2023-02-03T06:11:03.612Z,66.80
2023-02-03T06:16:07.826Z,85.07
2023-02-03T06:21:12.149Z,83.60
2023-02-03T06:26:16.169Z,61.50
2023-02-03T06:31:20.259Z,79.97
2023-02-03T06:36:24.346Z,117.10
2023-02-03T06:41:32.072Z,122.67
2023-02-03T06:46:35.942Z,110.63
2023-02-03T06:51:40.097Z,113.07
2023-02-03T06:56:43.906Z,123.60
2023-02-03T07:01:48.779Z,127.53
2023-02-03T07:06:52.767Z,177.23
2023-02-03T07:11:56.534Z,165.97
2023-02-03T07:17:00.558Z,152.77
2023-02-03T07:22:04.396Z,166.00
2023-02-03T07:27:08.767Z,141.63
2023-02-03T07:32:13.071Z,138.60
2023-02-03T07:37:16.882Z,157.87
2023-02-03T07:42:20.774Z,177.30
2023-02-03T07:47:27.561Z,165.70
2023-02-03T07:52:31.479Z,187.47
2023-02-03T07:57:35.390Z,184.43
2023-02-03T08:02:40.548Z,186.53
2023-02-03T08:07:44.605Z,208.40
2023-02-03T08:12:48.853Z,223.37
2023-02-03T08:17:54.960Z,221.87
2023-02-03T08:22:58.774Z,220.90
2023-02-03T08:28:02.959Z,222.13
2023-02-03T08:33:06.857Z,231.02
2023-02-03T08:38:10.765Z,213.90
2023-02-03T08:43:14.610Z,217.85
2023-02-03T08:48:18.627Z,211.97
2023-02-03T08:53:22.879Z,208.82
2023-02-03T08:58:26.629Z,208.03
2023-02-03T09:03:30.537Z,195.75
2023-02-03T09:08:34.305Z,180.82
2023-02-03T09:13:39.620Z,180.13
2023-02-03T09:18:44.499Z,166.18
2023-02-03T09:23:48.707Z,152.05
2023-02-03T09:28:53.925Z,162.13
2023-02-03T09:33:59.747Z,152.68
2023-02-03T09:39:03.455Z,135.97
2023-02-03T09:44:34.544Z,133.38
2023-02-03T09:49:43.804Z,131.48
2023-02-03T09:55:17.221Z,123.37
2023-02-03T10:00:44.297Z,107.18
2023-02-03T10:05:48.104Z,94.55
2023-02-03T10:11:13.343Z,83.55
2023-02-03T10:16:36.893Z,70.63
2023-02-03T10:21:46.095Z,70.13
2023-02-03T10:26:51.305Z,69.13
2023-02-03T10:31:58.908Z,59.05
2023-02-03T10:37:21.504Z,61.17
2023-02-03T10:42:25.557Z,59.22
2023-02-03T10:47:47.030Z,60.28
2023-02-03T10:52:50.999Z,65.35
2023-02-03T10:57:56.263Z,66.00
2023-02-03T11:03:17.918Z,67.47
2023-02-03T11:08:31.515Z,60.63
2023-02-03T11:13:36.064Z,61.00
2023-02-03T11:18:48.808Z,61.25
2023-02-03T11:24:21.928Z,58.67
2023-02-03T11:29:29.131Z,55.42
2023-02-03T11:34:38.842Z,66.07
2023-02-03T11:39:45.738Z,64.60
2023-02-03T11:44:51.863Z,55.20
2023-02-03T11:50:27.071Z,49.23
2023-02-03T11:55:54.057Z,63.23
2023-02-03T12:01:28.588Z,65.33
2023-02-03T12:06:54.534Z,58.77
2023-02-03T12:12:10.789Z,68.73
2023-02-03T12:17:27.975Z,86.20
2023-02-03T12:22:45.881Z,89.75
2023-02-03T12:28:08.198Z,86.17
2023-02-03T12:33:23.710Z,38.03
2023-02-03T12:38:46.007Z,51.47
2023-02-03T12:43:54.209Z,52.93
2023-02-03T12:49:03.555Z,66.10
2023-02-03T12:54:26.157Z,58.33
2023-02-03T12:59:32.970Z,56.77
2023-02-03T13:04:50.049Z,51.27
2023-02-03T13:10:06.544Z,37.87
2023-02-03T13:15:57.282Z,35.03
2023-02-03T13:21:01.620Z,29.53
2023-02-03T13:26:39.109Z,31.90
2023-02-03T13:31:53.850Z,31.73
2023-02-03T13:37:36.277Z,38.33
2023-02-03T13:42:47.133Z,78.77
2023-02-03T13:47:54.051Z,121.67
2023-02-03T13:53:03.845Z,85.57
2023-02-03T13:58:21.225Z,63.83
2023-02-03T14:03:27.905Z,71.13
2023-02-03T14:08:32.622Z,76.93
2023-02-03T14:13:36.669Z,69.50
2023-02-03T14:18:49.492Z,67.60
2023-02-03T14:24:01.213Z,79.53
2023-02-03T14:29:06.913Z,65.50
2023-02-03T14:34:16.507Z,75.43
2023-02-03T14:39:26.349Z,62.00
2023-02-03T14:44:57.040Z,59.37
2023-02-03T14:50:16.290Z,58.17
2023-02-03T14:55:41.721Z,53.80
2023-02-03T15:00:45.746Z,54.07
2023-02-03T15:05:55.999Z,54.20
2023-02-03T15:11:01.405Z,48.53
2023-02-03T15:16:06.676Z,54.73
2023-02-03T15:21:21.327Z,54.37
2023-02-03T15:26:27.559Z,50.40
2023-02-03T15:31:43.034Z,51.15
2023-02-03T15:36:55.354Z,38.03
2023-02-03T15:42:01.028Z,41.93
2023-02-03T15:47:17.213Z,37.37
2023-02-03T15:52:26.036Z,36.60
2023-02-03T15:57:35.424Z,56.60
2023-02-03T16:02:47.209Z,41.30
2023-02-03T16:07:51.217Z,51.83
2023-02-03T16:12:55.355Z,48.57
2023-02-03T16:17:59.392Z,37.03
2023-02-03T16:23:30.648Z,37.13
2023-02-03T16:28:53.555Z,37.33
2023-02-03T16:34:15.763Z,33.30
2023-02-03T16:39:38.481Z,32.73
2023-02-03T16:45:00.843Z,32.47
2023-02-03T16:50:37.442Z,35.63
2023-02-03T16:55:45.616Z,19.15
2023-02-03T17:00:52.817Z,26.17
2023-02-03T17:05:58.055Z,29.37
2023-02-03T17:11:12.478Z,33.57
2023-02-03T17:16:22.022Z,29.97
2023-02-03T17:21:28.995Z,33.67
2023-02-03T17:26:34.987Z,24.97
2023-02-03T17:31:38.839Z,30.38
2023-02-03T17:36:42.833Z,22.30
2023-02-03T17:57:52.905Z,20.80
2023-02-03T18:02:57.738Z,24.50
2023-02-03T18:08:09.004Z,18.03
2023-02-03T18:13:24.258Z,17.10
2023-02-03T18:18:28.794Z,20.80
2023-02-03T18:23:34.201Z,27.60
2023-02-03T18:28:39.615Z,32.83
2023-02-03T18:33:46.270Z,32.40
2023-02-03T18:38:51.165Z,21.53
2023-02-03T18:43:55.776Z,30.30
2023-02-03T18:49:00.172Z,28.57
2023-02-03T18:54:04.753Z,26.77
2023-02-03T18:59:11.729Z,32.40
2023-02-03T19:04:15.596Z,22.13
2023-02-03T19:09:21.454Z,22.87
2023-02-03T19:14:25.981Z,28.38
2023-02-03T19:19:29.886Z,28.67
2023-02-03T19:24:33.996Z,24.97
2023-02-03T19:29:39.795Z,33.57
2023-02-03T19:34:43.892Z,25.65
2023-02-03T19:39:53.137Z,38.43
2023-02-03T19:44:57.100Z,25.00
2023-02-03T19:50:01.056Z,34.77
2023-02-03T19:55:06.877Z,43.38
2023-02-03T20:00:11.567Z,24.43
2023-02-03T20:05:20.340Z,22.13
2023-02-03T20:10:26.868Z,25.67
2023-02-03T20:15:30.765Z,26.50
2023-02-03T20:20:35.846Z,27.20
2023-02-03T20:25:39.997Z,28.87
2023-02-03T20:30:44.123Z,26.67
2023-02-03T20:35:48.054Z,28.83
2023-02-03T20:40:52.717Z,33.13
2023-02-03T20:45:56.672Z,35.83
2023-02-03T20:51:00.533Z,32.07
2023-02-03T20:56:14.650Z,34.43
2023-02-03T21:01:23.261Z,38.50
2023-02-03T21:06:28.457Z,44.33
2023-02-03T21:11:32.396Z,44.33
2023-02-03T21:16:39.963Z,45.40
2023-02-03T21:21:44.732Z,44.93
2023-02-03T21:26:49.908Z,48.53
2023-02-03T21:31:55.659Z,49.83
2023-02-03T21:37:09.013Z,59.07
2023-02-03T21:42:41.719Z,60.17
2023-02-03T21:47:47.478Z,50.10
2023-02-03T21:52:51.379Z,51.90
2023-02-03T21:57:55.543Z,46.80
2023-02-03T22:03:01.975Z,49.50
2023-02-03T22:08:20.877Z,49.60
2023-02-03T22:13:24.650Z,42.90
2023-02-03T22:18:28.537Z,57.43
2023-02-03T22:24:01.154Z,53.23
2023-02-03T22:29:06.201Z,51.13
2023-02-03T22:34:10.240Z,57.33
2023-02-03T22:39:14.952Z,53.03
2023-02-03T22:44:19.461Z,53.13
2023-02-03T22:49:23.342Z,60.70
2023-02-03T22:54:27.026Z,60.17
2023-02-03T22:59:30.956Z,43.30
2023-02-03T23:04:34.861Z,54.87
2023-02-03T23:09:40.151Z,67.17
2023-02-03T23:14:44.209Z,66.40
2023-02-03T23:19:48.044Z,54.03
2023-02-03T23:24:51.945Z,59.17
2023-02-03T23:29:56.061Z,65.90
2023-02-03T23:35:19.073Z,56.47
2023-02-03T23:40:23.918Z,49.63
2023-02-03T23:45:27.787Z,60.97
2023-02-03T23:50:31.878Z,64.73
2023-02-03T23:55:36.960Z,62.63
